Araxa, Brazil
Current Conditions -  °F | °C
As of 7:00 PM on Thursday 27 Nov 2014 (Local Time) from SBAX Reporting Station
Thunderstorm Thunderstorm  
Wind Chill: 72°   Ceiling: 1000
Heat Index: 72°   Visibility: 4mi
Dew Point: 68°   Wind: 5mph
Humidity: 88%   Direction: 260°W
Pressure: 29.97"   Gusts: NA
Location:  19.58°S, 46.95°W
Report Text: SBAX 272100Z 26004KT 7000 2000SE -RA TS BKN010 FEW015CB 22/20 Q1015
Loading
Personal Weather Stations






























Interactive Weather Map New forecast layout! Learn more

10-Day Weather Forecast

Advertisements
Track Severe Weather on mobile